Time;durP1;ratioP1;P1;durP2;ratioP2;P2;SDS_P1;SDS_P2;PMS_P1;PMS_P2;Temp;Humidity;BMP_temperature;BMP_pressure;BME280_temperature;BME280_humidity;BME280_pressure;Samples;Min_cycle;Max_cycle;Signal;HPM_P1;HPM_P2
2023/06/19 00:02:02;;;;;;;5.07;2.60;;;;;;;;;;4994257;28;20145;-80
2023/06/19 00:04:31;;;;;;;2.88;2.30;;;;;;;;;;5006030;28;20412;-81
2023/06/19 00:06:57;;;;;;;2.97;2.45;;;;;;;;;;4985368;28;20042;-80
2023/06/19 00:09:23;;;;;;;4.05;2.40;;;;;;;;;;4998846;28;20045;-81
2023/06/19 00:11:49;;;;;;;2.75;2.05;;;;;;;;;;5003972;28;20038;-81
2023/06/19 00:14:15;;;;;;;2.53;2.28;;;;;;;;;;4991416;28;20026;-80
2023/06/19 00:16:41;;;;;;;3.10;1.92;;;;;;;;;;5000705;28;20476;-80
2023/06/19 00:19:07;;;;;;;2.35;1.98;;;;;;;;;;4998850;28;20026;-81
2023/06/19 00:21:33;;;;;;;3.75;2.38;;;;;;;;;;5002855;28;20037;-81
2023/06/19 00:24:05;;;;;;;4.78;2.40;;;;;;;;;;5002663;28;20027;-81
2023/06/19 00:26:31;;;;;;;3.10;2.00;;;;;;;;;;5002992;28;20030;-81
2023/06/19 00:28:58;;;;;;;3.25;2.00;;;;;;;;;;4997747;28;20034;-81
2023/06/19 00:31:24;;;;;;;2.47;1.90;;;;;;;;;;4999739;28;20042;-81
2023/06/19 00:33:50;;;;;;;2.85;2.05;;;;;;;;;;4996288;28;20031;-81
2023/06/19 00:36:21;;;;;;;3.45;2.28;;;;;;;;;;4991627;28;20528;-81
2023/06/19 00:38:47;;;;;;;2.72;1.92;;;;;;;;;;5007180;28;20115;-81
2023/06/19 00:41:14;;;;;;;2.85;2.05;;;;;;;;;;5004016;28;20034;-80
2023/06/19 00:43:40;;;;;;;2.72;2.10;;;;;;;;;;5001377;28;20512;-81
2023/06/19 00:46:06;;;;;;;2.15;1.95;;;;;;;;;;4998282;28;20034;-81
2023/06/19 00:48:33;;;;;;;4.40;2.10;;;;;;;;;;4996811;28;20521;-81
2023/06/19 00:50:59;;;;;;;3.05;2.28;;;;;;;;;;5003630;28;20040;-81
2023/06/19 00:53:26;;;;;;;2.70;2.00;;;;;;;;;;4996322;28;20122;-81
2023/06/19 00:55:52;;;;;;;3.42;2.25;;;;;;;;;;5003183;28;20113;-81
2023/06/19 00:58:20;;;;;;;3.53;2.15;;;;;;;;;;5006279;28;20480;-81
2023/06/19 01:00:46;;;;;;;5.60;2.30;;;;;;;;;;4982974;28;20421;-81
2023/06/19 01:03:12;;;;;;;2.90;2.00;;;;;;;;;;4997639;28;20037;-81
2023/06/19 01:05:38;;;;;;;2.95;1.83;;;;;;;;;;5000237;28;20053;-81
2023/06/19 01:08:32;;;;;;;3.60;2.17;;;;;;;;;;5004144;28;20045;-80
2023/06/19 01:10:59;;;;;;;3.53;1.98;;;;;;;;;;4993615;28;20022;-80
2023/06/19 01:13:29;;;;;;;2.90;1.95;;;;;;;;;;5013837;28;20035;-80
2023/06/19 01:15:55;;;;;;;3.67;2.35;;;;;;;;;;5004982;28;20023;-80
2023/06/19 01:18:22;;;;;;;2.70;2.03;;;;;;;;;;5004518;28;20029;-81
2023/06/19 01:20:48;;;;;;;3.28;2.05;;;;;;;;;;5005571;28;20021;-80
2023/06/19 01:23:14;;;;;;;2.15;1.80;;;;;;;;;;5004107;28;20040;-81
2023/06/19 01:25:40;;;;;;;2.00;1.80;;;;;;;;;;5011661;28;20022;-81
2023/06/19 01:28:09;;;;;;;2.70;1.92;;;;;;;;;;5000030;28;20025;-81
2023/06/19 01:30:35;;;;;;;2.45;1.90;;;;;;;;;;4998504;28;20033;-81
2023/06/19 01:33:09;;;;;;;2.40;1.77;;;;;;;;;;5012042;28;20071;-80
2023/06/19 01:35:37;;;;;;;2.53;2.10;;;;;;;;;;5010028;28;20370;-81
2023/06/19 01:38:03;;;;;;;3.38;2.22;;;;;;;;;;5006729;28;20048;-81
2023/06/19 01:40:31;;;;;;;2.97;2.10;;;;;;;;;;5002907;28;20034;-81
2023/06/19 01:42:59;;;;;;;4.38;2.10;;;;;;;;;;5002961;28;20729;-81
2023/06/19 01:45:25;;;;;;;2.33;1.75;;;;;;;;;;5000400;28;20101;-81
2023/06/19 01:47:51;;;;;;;3.13;2.20;;;;;;;;;;5008611;28;20506;-81
2023/06/19 01:50:17;;;;;;;3.35;2.20;;;;;;;;;;5002547;28;20022;-81
2023/06/19 01:52:43;;;;;;;3.10;1.98;;;;;;;;;;5005222;28;20058;-81
2023/06/19 01:55:09;;;;;;;4.20;2.00;;;;;;;;;;5004326;28;20026;-81
2023/06/19 01:57:36;;;;;;;2.72;1.90;;;;;;;;;;4999347;28;20033;-81
2023/06/19 02:00:02;;;;;;;2.42;1.85;;;;;;;;;;4991797;28;20049;-81
2023/06/19 02:02:28;;;;;;;2.78;2.05;;;;;;;;;;5007967;28;20435;-81
2023/06/19 02:04:54;;;;;;;3.75;2.40;;;;;;;;;;5008116;28;20042;-81
2023/06/19 02:07:20;;;;;;;2.65;1.98;;;;;;;;;;5004593;28;20397;-81
2023/06/19 02:09:46;;;;;;;3.53;2.13;;;;;;;;;;5010521;28;20022;-81
2023/06/19 02:12:12;;;;;;;2.25;1.90;;;;;;;;;;5000415;28;20045;-81
2023/06/19 02:14:38;;;;;;;3.38;2.30;;;;;;;;;;4998746;28;20461;-81
2023/06/19 02:17:04;;;;;;;3.67;2.20;;;;;;;;;;4997694;28;20267;-81
2023/06/19 02:19:30;;;;;;;4.13;1.88;;;;;;;;;;5002858;28;20014;-81
2023/06/19 02:21:56;;;;;;;2.97;2.00;;;;;;;;;;5002703;28;20037;-81
2023/06/19 02:24:22;;;;;;;2.00;1.80;;;;;;;;;;5007227;28;20030;-81
2023/06/19 02:26:48;;;;;;;2.70;2.10;;;;;;;;;;5004418;28;20022;-80
2023/06/19 02:29:14;;;;;;;4.38;2.13;;;;;;;;;;5001365;28;20029;-80
2023/06/19 02:31:40;;;;;;;3.30;1.98;;;;;;;;;;5002903;28;20022;-80
2023/06/19 02:34:06;;;;;;;2.40;1.80;;;;;;;;;;4999762;28;20038;-80
2023/06/19 02:36:32;;;;;;;2.50;1.88;;;;;;;;;;5004248;28;20022;-82
2023/06/19 02:38:58;;;;;;;2.20;1.70;;;;;;;;;;5004026;28;20018;-80
2023/06/19 02:41:24;;;;;;;3.03;2.28;;;;;;;;;;5004261;28;20511;-80
2023/06/19 02:43:50;;;;;;;3.53;2.30;;;;;;;;;;4998616;28;20042;-80
2023/06/19 02:46:15;;;;;;;3.83;1.92;;;;;;;;;;5004092;28;20033;-80
2023/06/19 02:48:41;;;;;;;2.85;2.05;;;;;;;;;;4997891;28;20062;-80
2023/06/19 02:51:07;;;;;;;2.30;1.88;;;;;;;;;;4991852;28;20457;-80
2023/06/19 02:53:34;;;;;;;2.50;1.90;;;;;;;;;;5003108;28;20030;-80
2023/06/19 02:56:00;;;;;;;3.50;2.08;;;;;;;;;;4996551;28;20603;-80
2023/06/19 02:58:26;;;;;;;3.70;2.13;;;;;;;;;;5000146;28;20053;-80
2023/06/19 03:00:53;;;;;;;3.08;1.98;;;;;;;;;;4994603;28;20018;-80
2023/06/19 03:03:18;;;;;;;2.22;1.83;;;;;;;;;;5000095;28;20729;-80
2023/06/19 03:05:44;;;;;;;3.33;2.03;;;;;;;;;;4998236;28;20050;-80
2023/06/19 03:08:10;;;;;;;1.80;1.70;;;;;;;;;;5002469;28;20041;-80
2023/06/19 03:10:36;;;;;;;3.42;2.42;;;;;;;;;;5005895;28;20084;-80
2023/06/19 03:13:02;;;;;;;3.45;2.20;;;;;;;;;;5003133;28;20033;-80
2023/06/19 03:15:28;;;;;;;3.30;2.20;;;;;;;;;;5007404;28;20436;-79
2023/06/19 03:17:54;;;;;;;2.30;1.92;;;;;;;;;;5000688;28;20030;-79
2023/06/19 03:20:20;;;;;;;2.70;2.08;;;;;;;;;;5002186;28;20035;-80
2023/06/19 03:22:46;;;;;;;2.38;1.73;;;;;;;;;;4999453;28;20079;-80
2023/06/19 03:25:12;;;;;;;3.45;2.33;;;;;;;;;;5003043;28;20026;-80
2023/06/19 03:27:38;;;;;;;2.80;1.92;;;;;;;;;;5000187;28;20049;-79
2023/06/19 03:30:09;;;;;;;2.83;1.90;;;;;;;;;;5000512;28;20434;-80
2023/06/19 03:32:35;;;;;;;2.22;2.03;;;;;;;;;;5006631;28;20508;-80
2023/06/19 03:35:07;;;;;;;3.28;2.20;;;;;;;;;;5002493;28;20029;-80
2023/06/19 03:37:33;;;;;;;2.80;2.13;;;;;;;;;;4997630;28;20030;-80
2023/06/19 03:39:59;;;;;;;2.80;2.13;;;;;;;;;;4994664;28;20477;-80
2023/06/19 03:42:25;;;;;;;2.70;2.00;;;;;;;;;;4996413;28;20042;-80
2023/06/19 03:44:51;;;;;;;2.78;2.05;;;;;;;;;;4995226;28;20034;-80
2023/06/19 03:47:17;;;;;;;2.97;2.03;;;;;;;;;;5003890;28;20117;-79
2023/06/19 03:49:43;;;;;;;3.05;2.30;;;;;;;;;;4999330;28;20065;-79
2023/06/19 03:52:09;;;;;;;2.33;1.70;;;;;;;;;;5002682;28;20038;-79
2023/06/19 03:54:35;;;;;;;3.60;2.10;;;;;;;;;;4997566;28;20370;-80
2023/06/19 03:57:01;;;;;;;3.10;2.00;;;;;;;;;;4996525;28;20223;-80
2023/06/19 03:59:27;;;;;;;2.67;1.92;;;;;;;;;;4999518;28;20153;-80
2023/06/19 04:01:53;;;;;;;3.58;2.17;;;;;;;;;;4993779;28;20084;-80
2023/06/19 04:04:19;;;;;;;2.70;2.15;;;;;;;;;;5005839;28;20808;-81
2023/06/19 04:06:46;;;;;;;2.95;1.98;;;;;;;;;;4998934;28;20042;-80
2023/06/19 04:09:12;;;;;;;2.22;1.75;;;;;;;;;;4997489;28;20045;-80
2023/06/19 04:11:38;;;;;;;1.98;1.75;;;;;;;;;;4999223;28;20014;-80
2023/06/19 04:14:04;;;;;;;3.97;2.00;;;;;;;;;;4996478;28;20405;-81
2023/06/19 04:16:30;;;;;;;2.15;1.90;;;;;;;;;;5005454;28;20025;-80
2023/06/19 04:18:56;;;;;;;3.10;2.40;;;;;;;;;;4992344;28;20363;-80
2023/06/19 04:21:22;;;;;;;1.98;1.63;;;;;;;;;;4999052;28;20088;-80
2023/06/19 04:23:48;;;;;;;2.13;1.77;;;;;;;;;;5004700;28;20026;-81
2023/06/19 04:26:14;;;;;;;2.42;2.08;;;;;;;;;;5005274;28;20042;-80
2023/06/19 04:28:41;;;;;;;3.47;2.30;;;;;;;;;;5001221;28;20039;-85
2023/06/19 04:31:07;;;;;;;3.03;2.00;;;;;;;;;;4995233;28;20022;-84
2023/06/19 04:33:34;;;;;;;3.92;2.10;;;;;;;;;;4995131;28;20022;-84
2023/06/19 04:36:00;;;;;;;5.28;1.85;;;;;;;;;;5005273;28;20056;-85
2023/06/19 04:38:26;;;;;;;2.58;1.85;;;;;;;;;;5013917;28;20026;-86
2023/06/19 04:40:52;;;;;;;2.17;1.95;;;;;;;;;;5009452;28;20366;-86
2023/06/19 04:43:18;;;;;;;3.80;2.30;;;;;;;;;;4981508;28;20034;-86
2023/06/19 04:45:44;;;;;;;5.20;2.20;;;;;;;;;;5005932;28;20036;-86
2023/06/19 04:48:11;;;;;;;2.53;1.92;;;;;;;;;;5015245;28;20022;-86
2023/06/19 04:50:37;;;;;;;3.00;2.25;;;;;;;;;;5010810;28;20022;-86
2023/06/19 04:53:03;;;;;;;2.70;2.13;;;;;;;;;;5004400;28;20385;-86
2023/06/19 04:55:30;;;;;;;3.28;2.20;;;;;;;;;;5009407;28;20045;-87
2023/06/19 04:57:56;;;;;;;2.65;2.13;;;;;;;;;;5004549;28;20040;-87
2023/06/19 05:00:23;;;;;;;3.88;2.10;;;;;;;;;;5011595;28;20030;-87
2023/06/19 05:02:49;;;;;;;2.63;1.95;;;;;;;;;;5005075;28;20057;-87
2023/06/19 05:05:16;;;;;;;3.33;2.25;;;;;;;;;;5006936;28;20569;-86
2023/06/19 05:07:42;;;;;;;2.85;2.17;;;;;;;;;;5005471;28;20035;-87
2023/06/19 05:10:08;;;;;;;3.03;1.98;;;;;;;;;;5003351;28;20037;-87
2023/06/19 05:12:35;;;;;;;3.78;2.40;;;;;;;;;;5007715;28;20064;-86
2023/06/19 05:15:01;;;;;;;2.83;2.28;;;;;;;;;;5015591;28;20050;-87
2023/06/19 05:17:27;;;;;;;2.42;2.00;;;;;;;;;;5011108;28;20023;-87
2023/06/19 05:19:53;;;;;;;5.15;2.15;;;;;;;;;;5015876;28;20481;-87
2023/06/19 05:22:21;;;;;;;3.55;2.60;;;;;;;;;;5002268;28;20034;-86
2023/06/19 05:24:47;;;;;;;2.95;2.22;;;;;;;;;;5008272;28;20026;-87
2023/06/19 05:27:13;;;;;;;2.88;2.13;;;;;;;;;;5014513;28;20125;-86
2023/06/19 05:29:39;;;;;;;2.88;2.30;;;;;;;;;;5009897;28;20109;-87
2023/06/19 05:32:05;;;;;;;3.05;2.30;;;;;;;;;;5000785;28;20084;-87
2023/06/19 05:34:31;;;;;;;2.03;1.80;;;;;;;;;;5000080;28;20030;-88
2023/06/19 05:37:00;;;;;;;3.42;2.25;;;;;;;;;;4991919;28;20029;-86
2023/06/19 05:39:26;;;;;;;3.20;2.42;;;;;;;;;;5008484;28;20820;-86
2023/06/19 05:41:52;;;;;;;3.95;2.50;;;;;;;;;;4997720;28;20031;-85
2023/06/19 05:44:18;;;;;;;3.42;2.60;;;;;;;;;;5005002;28;20497;-85
2023/06/19 05:46:45;;;;;;;2.92;2.03;;;;;;;;;;5005921;28;20053;-86
2023/06/19 05:49:11;;;;;;;3.20;2.10;;;;;;;;;;5005914;28;20100;-87
2023/06/19 05:51:37;;;;;;;2.72;2.30;;;;;;;;;;4997993;28;20034;-84
2023/06/19 05:54:03;;;;;;;2.88;2.00;;;;;;;;;;5006883;28;20068;-87
2023/06/19 05:56:33;;;;;;;2.45;1.90;;;;;;;;;;5006666;28;20029;-77
2023/06/19 05:59:02;;;;;;;3.50;2.25;;;;;;;;;;5005218;28;20030;-78
2023/06/19 06:01:31;;;;;;;2.45;2.00;;;;;;;;;;5001630;28;20105;-87
2023/06/19 06:03:57;;;;;;;3.70;2.05;;;;;;;;;;4998872;28;20417;-79
2023/06/19 06:06:25;;;;;;;4.15;2.45;;;;;;;;;;4993494;28;20073;-78
2023/06/19 06:08:51;;;;;;;3.83;2.60;;;;;;;;;;4998857;28;20068;-79
2023/06/19 06:11:17;;;;;;;3.58;2.72;;;;;;;;;;4996227;28;20030;-79
2023/06/19 06:13:43;;;;;;;5.28;3.10;;;;;;;;;;5006711;28;20073;-78
2023/06/19 06:16:09;;;;;;;4.10;2.65;;;;;;;;;;5000136;28;20474;-78
2023/06/19 06:18:35;;;;;;;3.28;2.40;;;;;;;;;;5007898;28;20642;-79
2023/06/19 06:21:01;;;;;;;5.20;2.78;;;;;;;;;;5005541;28;20045;-82
2023/06/19 06:23:28;;;;;;;4.30;2.88;;;;;;;;;;5003391;28;20038;-77
2023/06/19 06:26:01;;;;;;;3.08;2.25;;;;;;;;;;4996603;28;20034;-78
2023/06/19 06:28:27;;;;;;;4.60;2.70;;;;;;;;;;5001929;28;20036;-77
2023/06/19 06:30:53;;;;;;;3.67;2.55;;;;;;;;;;5002502;28;20022;-79
2023/06/19 06:33:19;;;;;;;3.05;2.22;;;;;;;;;;5008935;28;20033;-78
2023/06/19 06:35:45;;;;;;;3.67;2.60;;;;;;;;;;5007193;28;20440;-76
2023/06/19 06:38:11;;;;;;;4.72;2.75;;;;;;;;;;4998281;28;20671;-77
2023/06/19 06:40:37;;;;;;;4.63;2.92;;;;;;;;;;5001246;28;20018;-80
2023/06/19 06:43:03;;;;;;;5.30;3.50;;;;;;;;;;4994301;28;20085;-78
2023/06/19 06:45:28;;;;;;;3.30;2.70;;;;;;;;;;5004359;28;20034;-76
2023/06/19 06:47:54;;;;;;;3.80;3.00;;;;;;;;;;5003399;28;20440;-78
2023/06/19 06:50:21;;;;;;;4.60;2.83;;;;;;;;;;5003903;28;20331;-82
2023/06/19 06:52:46;;;;;;;4.30;2.75;;;;;;;;;;5006357;28;20480;-81
2023/06/19 06:55:13;;;;;;;4.07;3.08;;;;;;;;;;4998317;28;20030;-80
2023/06/19 06:57:39;;;;;;;5.03;3.08;;;;;;;;;;5001425;28;20029;-84
2023/06/19 07:00:07;;;;;;;4.75;3.22;;;;;;;;;;5002205;28;20018;-85
2023/06/19 07:02:33;;;;;;;2.67;2.33;;;;;;;;;;5003554;28;20125;-84
2023/06/19 07:04:59;;;;;;;3.97;2.92;;;;;;;;;;4993668;28;20621;-76
2023/06/19 07:07:24;;;;;;;3.97;3.15;;;;;;;;;;4995890;28;20057;-86
2023/06/19 07:09:50;;;;;;;5.53;2.78;;;;;;;;;;4980513;28;20038;-85
2023/06/19 07:12:16;;;;;;;3.55;2.40;;;;;;;;;;4998601;28;20087;-84
2023/06/19 07:14:42;;;;;;;4.40;2.90;;;;;;;;;;5010677;28;20053;-84
2023/06/19 07:17:09;;;;;;;3.85;2.90;;;;;;;;;;5004405;28;20022;-85
2023/06/19 07:19:34;;;;;;;3.92;3.03;;;;;;;;;;5001399;28;20029;-85
2023/06/19 07:22:00;;;;;;;3.60;2.65;;;;;;;;;;5004255;28;20474;-84
2023/06/19 07:24:26;;;;;;;5.88;3.03;;;;;;;;;;5010433;28;20149;-85
2023/06/19 07:26:53;;;;;;;5.22;3.15;;;;;;;;;;5001804;28;20022;-84
2023/06/19 07:29:19;;;;;;;4.13;2.75;;;;;;;;;;4996348;28;20025;-84
2023/06/19 07:31:45;;;;;;;4.07;3.08;;;;;;;;;;5004963;28;20038;-84
2023/06/19 07:34:11;;;;;;;4.07;2.92;;;;;;;;;;5005932;28;20029;-84
2023/06/19 07:36:37;;;;;;;4.47;2.92;;;;;;;;;;5003932;28;20038;-85
2023/06/19 07:39:03;;;;;;;4.28;3.05;;;;;;;;;;4993410;28;20405;-85
2023/06/19 07:41:31;;;;;;;4.15;2.92;;;;;;;;;;5008584;28;20034;-84
2023/06/19 07:43:57;;;;;;;4.78;3.28;;;;;;;;;;5002811;28;20075;-84
2023/06/19 07:46:23;;;;;;;3.22;2.60;;;;;;;;;;4993327;28;20034;-84
2023/06/19 07:48:49;;;;;;;3.75;2.47;;;;;;;;;;4996966;28;20045;-84
2023/06/19 07:51:15;;;;;;;4.45;2.80;;;;;;;;;;4998493;28;20030;-84
2023/06/19 07:53:43;;;;;;;4.25;3.15;;;;;;;;;;4987774;28;20026;-84
2023/06/19 07:56:09;;;;;;;3.40;2.65;;;;;;;;;;5001542;28;20030;-84
2023/06/19 07:58:35;;;;;;;5.22;2.83;;;;;;;;;;5002533;28;20034;-84
2023/06/19 08:01:01;;;;;;;7.43;3.00;;;;;;;;;;4996991;28;20033;-85
2023/06/19 08:03:27;;;;;;;4.28;3.03;;;;;;;;;;4995772;28;20472;-83
2023/06/19 08:05:53;;;;;;;3.65;3.03;;;;;;;;;;5003203;28;20170;-81
2023/06/19 08:08:19;;;;;;;3.72;2.88;;;;;;;;;;5005919;28;20083;-81
2023/06/19 08:10:45;;;;;;;4.85;3.00;;;;;;;;;;5001602;28;20038;-80
2023/06/19 08:13:11;;;;;;;3.88;3.15;;;;;;;;;;5009237;28;20030;-81
2023/06/19 08:15:37;;;;;;;4.38;2.80;;;;;;;;;;5004317;28;20018;-83
2023/06/19 08:18:03;;;;;;;4.00;2.63;;;;;;;;;;5000715;28;20042;-81
2023/06/19 08:20:29;;;;;;;4.35;2.83;;;;;;;;;;5002015;28;20037;-81
2023/06/19 08:22:56;;;;;;;3.42;2.33;;;;;;;;;;4989267;28;20037;-81
2023/06/19 08:25:22;;;;;;;3.92;2.83;;;;;;;;;;5003276;28;20029;-83
2023/06/19 08:27:48;;;;;;;4.88;2.95;;;;;;;;;;5005972;28;20026;-82
2023/06/19 08:30:14;;;;;;;3.25;2.70;;;;;;;;;;5007045;28;20075;-82
2023/06/19 08:32:40;;;;;;;3.47;2.53;;;;;;;;;;5012541;28;20038;-81
2023/06/19 08:35:06;;;;;;;6.95;2.67;;;;;;;;;;5008574;28;20022;-81
2023/06/19 08:37:32;;;;;;;5.03;3.15;;;;;;;;;;5009446;28;20026;-81
2023/06/19 08:39:59;;;;;;;4.45;3.25;;;;;;;;;;5008762;28;20071;-83
2023/06/19 08:42:25;;;;;;;4.43;2.75;;;;;;;;;;5014059;28;20036;-81
2023/06/19 08:44:51;;;;;;;4.57;3.25;;;;;;;;;;5000546;28;20029;-82
2023/06/19 08:47:17;;;;;;;6.45;3.17;;;;;;;;;;5015050;28;20488;-81
2023/06/19 08:49:43;;;;;;;6.05;3.25;;;;;;;;;;5010519;28;20507;-80
2023/06/19 08:52:09;;;;;;;5.82;3.35;;;;;;;;;;5011709;28;20040;-82
2023/06/19 08:54:43;;;;;;;4.28;3.05;;;;;;;;;;4995436;28;20022;-79
2023/06/19 08:57:10;;;;;;;3.90;2.95;;;;;;;;;;4998604;28;20088;-82
2023/06/19 08:59:36;;;;;;;4.07;3.25;;;;;;;;;;5001759;28;20437;-87
2023/06/19 09:02:02;;;;;;;4.28;2.88;;;;;;;;;;4995051;28;20018;-82
2023/06/19 09:04:28;;;;;;;3.67;2.92;;;;;;;;;;5006316;28;20248;-75
2023/06/19 09:06:58;;;;;;;5.57;3.13;;;;;;;;;;5008914;28;20570;-74
2023/06/19 09:09:24;;;;;;;4.10;3.10;;;;;;;;;;4996420;28;20029;-76
2023/06/19 09:11:58;;;;;;;7.55;2.90;;;;;;;;;;5003664;28;20034;-79
2023/06/19 09:14:33;;;;;;;4.20;2.92;;;;;;;;;;5009508;28;20084;-79
2023/06/19 09:16:59;;;;;;;4.78;3.17;;;;;;;;;;4999174;28;20060;-77
2023/06/19 09:19:25;;;;;;;6.78;2.53;;;;;;;;;;4998787;28;20026;-78
2023/06/19 09:21:51;;;;;;;7.82;2.88;;;;;;;;;;4999422;28;20029;-78
2023/06/19 09:24:17;;;;;;;8.90;3.63;;;;;;;;;;5003744;28;20030;-78
2023/06/19 09:26:43;;;;;;;4.25;2.92;;;;;;;;;;5007122;28;20052;-78
2023/06/19 09:29:10;;;;;;;3.42;2.70;;;;;;;;;;5012859;28;20033;-78
2023/06/19 09:31:37;;;;;;;4.22;2.80;;;;;;;;;;5004089;28;20030;-79
2023/06/19 09:34:04;;;;;;;4.15;2.85;;;;;;;;;;5004751;28;20041;-78
2023/06/19 09:36:32;;;;;;;4.18;2.78;;;;;;;;;;5006588;28;20057;-78
2023/06/19 09:39:00;;;;;;;4.50;3.05;;;;;;;;;;5005650;28;20080;-78
2023/06/19 09:41:26;;;;;;;3.85;2.85;;;;;;;;;;5012551;28;20026;-77
2023/06/19 09:43:57;;;;;;;4.55;2.75;;;;;;;;;;5011097;28;20808;-78
2023/06/19 09:46:27;;;;;;;3.92;2.83;;;;;;;;;;5012633;28;20034;-78
2023/06/19 09:48:54;;;;;;;6.47;3.47;;;;;;;;;;5008414;28;20033;-78
2023/06/19 09:51:22;;;;;;;4.15;2.78;;;;;;;;;;5012567;28;20481;-78
2023/06/19 09:53:49;;;;;;;4.68;2.88;;;;;;;;;;5013048;28;20033;-78
2023/06/19 09:56:15;;;;;;;5.70;3.03;;;;;;;;;;4996283;28;20038;-77
2023/06/19 09:58:43;;;;;;;3.65;2.70;;;;;;;;;;4992535;28;20022;-78
2023/06/19 10:01:09;;;;;;;4.57;2.50;;;;;;;;;;4999086;28;20487;-78
2023/06/19 10:03:36;;;;;;;3.58;2.63;;;;;;;;;;5001721;28;20081;-78
2023/06/19 10:06:02;;;;;;;4.57;2.63;;;;;;;;;;5001655;28;20547;-78
2023/06/19 10:08:30;;;;;;;4.93;2.45;;;;;;;;;;5004001;28;20053;-78
2023/06/19 10:11:00;;;;;;;3.53;2.70;;;;;;;;;;5002096;28;20481;-78
2023/06/19 10:13:38;;;;;;;7.15;3.22;;;;;;;;;;4998529;28;20109;-78
2023/06/19 10:16:04;;;;;;;3.75;2.63;;;;;;;;;;5011069;28;20030;-78
2023/06/19 10:18:32;;;;;;;3.33;2.42;;;;;;;;;;5012222;28;20453;-78
2023/06/19 10:20:58;;;;;;;4.68;2.88;;;;;;;;;;5011533;28;20121;-78
2023/06/19 10:23:25;;;;;;;4.10;2.85;;;;;;;;;;5002131;28;20050;-79
2023/06/19 10:26:00;;;;;;;4.20;2.75;;;;;;;;;;5003751;28;20058;-77
2023/06/19 10:28:28;;;;;;;4.22;2.78;;;;;;;;;;5009974;28;20030;-77
2023/06/19 10:31:01;;;;;;;2.80;2.47;;;;;;;;;;5003209;28;20056;-77
2023/06/19 10:33:28;;;;;;;5.47;3.15;;;;;;;;;;4998291;28;20044;-77
2023/06/19 10:35:54;;;;;;;4.05;2.63;;;;;;;;;;4992265;28;20516;-77
2023/06/19 10:38:20;;;;;;;3.20;2.08;;;;;;;;;;5006926;28;20412;-77
2023/06/19 10:40:47;;;;;;;4.38;2.67;;;;;;;;;;5006389;28;20038;-78
2023/06/19 10:43:13;;;;;;;3.67;2.75;;;;;;;;;;5007791;28;20551;-77
2023/06/19 10:45:39;;;;;;;3.83;2.65;;;;;;;;;;4996490;28;20038;-77
2023/06/19 10:48:05;;;;;;;2.75;2.40;;;;;;;;;;5009598;28;20025;-78
2023/06/19 10:50:38;;;;;;;3.40;2.45;;;;;;;;;;5002537;28;20058;-78
2023/06/19 10:53:04;;;;;;;4.00;2.65;;;;;;;;;;5010154;28;20117;-78
2023/06/19 10:55:30;;;;;;;3.50;2.40;;;;;;;;;;4996022;28;20045;-78
2023/06/19 10:57:56;;;;;;;3.85;2.75;;;;;;;;;;5009698;28;20029;-78
2023/06/19 11:00:26;;;;;;;3.70;2.58;;;;;;;;;;5004575;28;20026;-78
2023/06/19 11:02:52;;;;;;;4.32;2.70;;;;;;;;;;5002698;28;20026;-78
2023/06/19 11:05:20;;;;;;;3.67;2.50;;;;;;;;;;4997629;28;20421;-78
2023/06/19 11:07:51;;;;;;;3.53;2.53;;;;;;;;;;5002420;28;20029;-78
2023/06/19 11:10:20;;;;;;;3.17;2.80;;;;;;;;;;5011619;28;20030;-78
2023/06/19 11:12:46;;;;;;;3.50;2.65;;;;;;;;;;5000322;28;20042;-78
2023/06/19 11:15:12;;;;;;;3.58;2.58;;;;;;;;;;5000029;28;20890;-78
2023/06/19 11:17:38;;;;;;;3.28;2.47;;;;;;;;;;5000117;28;20099;-78
2023/06/19 11:20:05;;;;;;;3.63;2.45;;;;;;;;;;5000585;28;20046;-79
2023/06/19 11:22:38;;;;;;;4.40;2.95;;;;;;;;;;5000016;28;20460;-77
2023/06/19 11:25:05;;;;;;;3.17;2.63;;;;;;;;;;5010319;28;20057;-80
2023/06/19 11:27:31;;;;;;;4.38;2.20;;;;;;;;;;5005509;28;20120;-74
2023/06/19 11:29:58;;;;;;;4.70;3.42;;;;;;;;;;5011100;28;20030;-83
2023/06/19 11:32:24;;;;;;;4.32;2.70;;;;;;;;;;5004271;28;20204;-82
2023/06/19 11:34:51;;;;;;;3.88;2.70;;;;;;;;;;4996613;28;20032;-83
2023/06/19 11:37:17;;;;;;;3.47;2.83;;;;;;;;;;4986539;28;20472;-82
2023/06/19 11:39:44;;;;;;;4.70;3.20;;;;;;;;;;5000826;28;20050;-77
2023/06/19 11:42:10;;;;;;;3.83;2.42;;;;;;;;;;5010526;28;20048;-77
2023/06/19 11:44:36;;;;;;;4.45;2.92;;;;;;;;;;5000900;28;20568;-76
2023/06/19 11:47:03;;;;;;;5.82;3.05;;;;;;;;;;5003398;28;20014;-83
2023/06/19 11:49:34;;;;;;;4.65;2.78;;;;;;;;;;5003895;28;20117;-77
2023/06/19 11:52:00;;;;;;;5.93;3.28;;;;;;;;;;4991847;28;20037;-77
2023/06/19 11:54:26;;;;;;;4.10;2.78;;;;;;;;;;4995625;28;20027;-75
2023/06/19 11:56:52;;;;;;;4.88;3.20;;;;;;;;;;5003655;28;20038;-76
2023/06/19 11:59:18;;;;;;;6.45;3.42;;;;;;;;;;4999969;28;20038;-75
2023/06/19 12:01:44;;;;;;;4.35;3.45;;;;;;;;;;5001272;28;20033;-79
2023/06/19 12:04:11;;;;;;;6.28;3.50;;;;;;;;;;4997707;28;20039;-75
2023/06/19 12:06:37;;;;;;;3.30;2.88;;;;;;;;;;4999609;28;20053;-75
2023/06/19 12:09:06;;;;;;;4.90;3.45;;;;;;;;;;5003988;28;20041;-75
2023/06/19 12:11:32;;;;;;;4.43;3.10;;;;;;;;;;5006066;28;20413;-75
2023/06/19 12:13:58;;;;;;;3.97;2.92;;;;;;;;;;4996433;28;20244;-75
2023/06/19 12:16:25;;;;;;;5.03;3.30;;;;;;;;;;5003144;28;20272;-75
2023/06/19 12:18:51;;;;;;;4.03;3.13;;;;;;;;;;5002169;28;20022;-74
2023/06/19 12:21:19;;;;;;;4.95;3.33;;;;;;;;;;5001394;28;20080;-76
2023/06/19 12:23:45;;;;;;;4.45;2.97;;;;;;;;;;4998215;28;20033;-74
2023/06/19 12:26:11;;;;;;;4.13;3.15;;;;;;;;;;4999617;28;20034;-77
2023/06/19 12:28:37;;;;;;;4.93;3.38;;;;;;;;;;5001154;28;20477;-77
2023/06/19 12:31:04;;;;;;;3.97;2.83;;;;;;;;;;4999364;28;20461;-77
2023/06/19 12:33:32;;;;;;;5.25;3.28;;;;;;;;;;4995067;28;20651;-74
2023/06/19 12:35:59;;;;;;;4.95;3.22;;;;;;;;;;4998604;28;20030;-76
2023/06/19 12:38:25;;;;;;;6.90;3.20;;;;;;;;;;4996236;28;20516;-76
2023/06/19 12:40:51;;;;;;;5.80;4.57;;;;;;;;;;5006789;28;20018;-77
2023/06/19 12:43:17;;;;;;;4.20;3.38;;;;;;;;;;5003991;28;20045;-77
2023/06/19 12:45:42;;;;;;;4.45;3.45;;;;;;;;;;5003961;28;20029;-77
2023/06/19 12:48:10;;;;;;;3.40;3.10;;;;;;;;;;4997697;28;20061;-76
2023/06/19 12:50:36;;;;;;;5.20;3.67;;;;;;;;;;5001203;28;20056;-76
2023/06/19 12:53:02;;;;;;;5.07;3.40;;;;;;;;;;5003137;28;20465;-77
2023/06/19 12:55:28;;;;;;;3.97;2.97;;;;;;;;;;5005433;28;20031;-76
2023/06/19 12:57:54;;;;;;;6.68;4.13;;;;;;;;;;4994286;28;20037;-75
2023/06/19 13:00:20;;;;;;;8.15;5.43;;;;;;;;;;5000096;28;20026;-74
2023/06/19 13:02:46;;;;;;;14.07;6.95;;;;;;;;;;5006144;28;20033;-75
2023/06/19 13:05:13;;;;;;;8.73;5.80;;;;;;;;;;5012162;28;20061;-75
2023/06/19 13:07:38;;;;;;;13.98;7.50;;;;;;;;;;5001845;28;20068;-78
2023/06/19 13:10:06;;;;;;;14.77;8.60;;;;;;;;;;5001197;28;20029;-76
2023/06/19 13:12:32;;;;;;;23.08;10.38;;;;;;;;;;4984405;28;20400;-76
2023/06/19 13:14:58;;;;;;;16.52;8.63;;;;;;;;;;5006133;28;20022;-75
2023/06/19 13:17:24;;;;;;;19.10;8.13;;;;;;;;;;5001167;28;20037;-79
2023/06/19 13:19:50;;;;;;;15.27;7.50;;;;;;;;;;4997572;28;20589;-78
2023/06/19 13:22:16;;;;;;;17.30;7.95;;;;;;;;;;5002209;28;20113;-80
2023/06/19 13:24:42;;;;;;;13.57;7.25;;;;;;;;;;5000419;28;20038;-78
2023/06/19 13:27:08;;;;;;;15.18;7.18;;;;;;;;;;5008705;28;20030;-78
2023/06/19 13:29:34;;;;;;;15.48;7.15;;;;;;;;;;5006673;28;20034;-75
2023/06/19 13:32:01;;;;;;;17.63;8.13;;;;;;;;;;5003519;28;20057;-77
2023/06/19 13:34:27;;;;;;;20.13;9.10;;;;;;;;;;4999449;28;20141;-79
2023/06/19 13:36:53;;;;;;;15.70;9.00;;;;;;;;;;4999394;28;20041;-77
2023/06/19 13:39:19;;;;;;;19.85;8.60;;;;;;;;;;4999673;28;20022;-77
2023/06/19 13:41:45;;;;;;;16.08;7.35;;;;;;;;;;5012221;28;20396;-76
2023/06/19 13:44:12;;;;;;;17.15;7.93;;;;;;;;;;4998544;28;20507;-77
2023/06/19 13:46:38;;;;;;;16.55;8.25;;;;;;;;;;4992702;28;20030;-79
2023/06/19 13:49:04;;;;;;;12.88;7.07;;;;;;;;;;5004875;28;20417;-77
2023/06/19 13:51:30;;;;;;;13.55;7.35;;;;;;;;;;5006944;28;20026;-76
2023/06/19 13:53:56;;;;;;;19.15;7.55;;;;;;;;;;4995170;28;20030;-80
2023/06/19 13:56:23;;;;;;;15.77;8.00;;;;;;;;;;4999906;28;20026;-78
2023/06/19 13:58:49;;;;;;;13.82;7.18;;;;;;;;;;5003878;28;20393;-78
2023/06/19 14:01:16;;;;;;;12.52;6.82;;;;;;;;;;5005161;28;20087;-79
2023/06/19 14:03:42;;;;;;;17.02;6.97;;;;;;;;;;5001379;28;20094;-79
2023/06/19 14:06:08;;;;;;;14.68;7.63;;;;;;;;;;4993986;28;20480;-77
2023/06/19 14:08:39;;;;;;;12.60;6.55;;;;;;;;;;5000385;28;20041;-79
2023/06/19 14:11:05;;;;;;;11.57;6.63;;;;;;;;;;5006041;28;20026;-78
2023/06/19 14:13:42;;;;;;;11.48;5.90;;;;;;;;;;5003474;28;20124;-79
2023/06/19 14:16:08;;;;;;;10.80;5.93;;;;;;;;;;4995155;28;20679;-81
2023/06/19 14:18:36;;;;;;;16.83;7.30;;;;;;;;;;4992815;28;20069;-77
2023/06/19 14:21:02;;;;;;;9.23;6.07;;;;;;;;;;4995413;28;20025;-79
2023/06/19 14:23:28;;;;;;;11.90;5.63;;;;;;;;;;5005518;28;20025;-77
2023/06/19 14:25:54;;;;;;;11.70;6.13;;;;;;;;;;5004152;28;20645;-78
2023/06/19 14:28:21;;;;;;;11.75;6.43;;;;;;;;;;5004301;28;20036;-77
2023/06/19 14:30:47;;;;;;;8.27;5.05;;;;;;;;;;5004415;28;20560;-80
2023/06/19 14:33:16;;;;;;;11.55;5.68;;;;;;;;;;4997150;28;20018;-79
2023/06/19 14:35:45;;;;;;;11.65;5.97;;;;;;;;;;4999526;28;20114;-83
2023/06/19 14:38:13;;;;;;;11.30;5.60;;;;;;;;;;5002567;28;20070;-80